Terminal Aerodrome Forecast
Issued by NWS

Home | Current Version | Previous Version | Graphics & Text | Print | Product List | Glossary On
Versions: 1 2 3 4 5 6 7 8 9 10 11 12 13 14 15 16 17 18
000
FTUS43 KTOP 260500
TAFMHK
TAF
KMHK 260528Z 2606/2706 20011KT P6SM OVC080
     FM260730 26009KT P6SM -SHRA SCT025 OVC050
     FM260900 28011KT P6SM SCT025 BKN050
     FM261330 32014G27KT P6SM BKN028
     FM261700 33011G21KT P6SM SCT035
     FM270000 33004KT P6SM SKC=

USA.gov is the U.S. government's official web portal to all federal, state and local government web resources and services.